TimeIST,TemperatureF,Dew PointF,Humidity,Sea Level PressureIn,VisibilityMPH,Wind Direction,Wind SpeedMPH,Gust SpeedMPH,PrecipitationIn,Events,Conditions,WindDirDegrees,DateUTC
12:50 AM,59.0,55.4,88,30.04,6.2,West,4.6,-,N/A,,Mostly Cloudy,280,2012-11-12 22:50:00
1:50 AM,59.0,57.2,94,30.04,6.2,West,4.6,-,N/A,,Mostly Cloudy,280,2012-11-12 23:50:00
2:50 AM,57.2,57.2,100,30.01,-9999.0,WNW,5.8,-,N/A,,Clear,290,2012-11-13 00:50:00
3:50 AM,57.2,57.2,100,30.04,-9999.0,West,4.6,-,N/A,,Clear,270,2012-11-13 01:50:00
4:50 AM,55.4,55.4,100,30.04,5.6,West,5.8,-,N/A,,Clear,280,2012-11-13 02:50:00
5:50 AM,55.4,55.4,100,30.04,5.6,WNW,9.2,-,N/A,,Partly Cloudy,290,2012-11-13 03:50:00
6:50 AM,55.4,55.4,100,30.04,6.2,South,4.6,-,N/A,,Scattered Clouds,190,2012-11-13 04:50:00
7:50 AM,59.0,53.6,82,30.06,6.2,SSW,3.5,-,N/A,,Scattered Clouds,200,2012-11-13 05:50:00
8:50 AM,62.6,53.6,72,30.06,6.2,WSW,3.5,-,N/A,,Partly Cloudy,250,2012-11-13 06:50:00
9:50 AM,66.2,51.8,60,30.06,6.2,South,3.5,-,N/A,,Mostly Cloudy,190,2012-11-13 07:50:00
10:50 AM,69.8,50.0,49,30.06,6.2,Variable,1.2,-,N/A,,Mostly Cloudy,0,2012-11-13 08:50:00
11:50 AM,68.0,50.0,52,30.04,6.2,Variable,2.3,-,N/A,,Mostly Cloudy,0,2012-11-13 09:50:00
12:50 PM,68.0,46.4,46,30.01,6.2,North,5.8,-,N/A,,Mostly Cloudy,360,2012-11-13 10:50:00
1:50 PM,69.8,48.2,46,30.01,6.2,NNW,4.6,-,N/A,,Mostly Cloudy,340,2012-11-13 11:50:00
2:50 PM,69.8,48.2,46,30.01,6.2,NW,8.1,-,N/A,,Mostly Cloudy,320,2012-11-13 12:50:00
3:50 PM,69.8,48.2,46,30.01,6.2,NW,11.5,-,N/A,,Scattered Clouds,310,2012-11-13 13:50:00
4:50 PM,68.0,48.2,49,30.01,6.2,WNW,12.7,-,N/A,,Scattered Clouds,300,2012-11-13 14:50:00
5:50 PM,64.4,48.2,56,30.04,6.2,NW,11.5,-,N/A,,Partly Cloudy,310,2012-11-13 15:50:00
6:50 PM,62.6,50.0,63,30.04,6.2,NW,11.5,-,N/A,,Scattered Clouds,320,2012-11-13 16:50:00
7:50 PM,62.6,50.0,63,30.06,-9999.0,NW,9.2,-,N/A,,Clear,310,2012-11-13 17:50:00
8:50 PM,60.8,51.8,72,30.06,-9999.0,NW,9.2,-,N/A,,Clear,310,2012-11-13 18:50:00
9:50 PM,59.0,51.8,77,30.06,-9999.0,NW,9.2,-,N/A,,Clear,320,2012-11-13 19:50:00
10:50 PM,59.0,51.8,77,30.06,-9999.0,Variable,1.2,-,N/A,,Clear,0,2012-11-13 20:50:00
11:50 PM,55.4,50.0,82,30.06,-9999.0,SW,4.6,-,N/A,,Clear,230,2012-11-13 21:50:00